createdAt,value
2023-07-25T00:00:28.010Z,100.00
2023-07-25T00:01:19.794Z,100.00
2023-07-25T00:02:11.349Z,100.00
2023-07-25T00:03:03.236Z,100.00
2023-07-25T00:03:54.820Z,100.00
2023-07-25T00:04:46.885Z,100.00
2023-07-25T00:05:38.476Z,100.00
2023-07-25T00:06:31.653Z,100.00
2023-07-25T00:07:23.228Z,100.00
2023-07-25T00:08:14.787Z,100.00
2023-07-25T00:09:07.275Z,100.00
2023-07-25T00:09:59.384Z,100.00
2023-07-25T00:10:51.105Z,100.00
2023-07-25T00:11:45.940Z,100.00
2023-07-25T00:12:38.679Z,100.00
2023-07-25T00:13:30.494Z,100.00
2023-07-25T00:14:22.393Z,100.00
2023-07-25T00:15:14.970Z,100.00
2023-07-25T00:16:06.746Z,100.00
2023-07-25T00:16:58.242Z,100.00
2023-07-25T00:17:50.553Z,100.00
2023-07-25T00:18:42.081Z,100.00
2023-07-25T00:19:33.553Z,100.00
2023-07-25T00:20:25.146Z,100.00
2023-07-25T00:21:16.744Z,100.00
2023-07-25T00:22:08.329Z,100.00
2023-07-25T00:23:00.384Z,100.00
2023-07-25T00:23:52.544Z,100.00
2023-07-25T00:24:44.102Z,100.00
2023-07-25T00:25:35.975Z,99.70
2023-07-25T00:26:27.653Z,99.80
2023-07-25T00:27:19.166Z,99.83
2023-07-25T00:28:10.923Z,100.00
2023-07-25T00:29:02.593Z,100.00
2023-07-25T00:29:54.123Z,100.00
2023-07-25T00:30:45.845Z,100.00
2023-07-25T00:31:37.340Z,100.00
2023-07-25T00:32:29.085Z,100.00
2023-07-25T00:33:20.646Z,100.00
2023-07-25T00:34:12.437Z,100.00
2023-07-25T00:35:04.519Z,100.00
2023-07-25T00:35:56.010Z,100.00
2023-07-25T00:36:47.529Z,100.00
2023-07-25T00:37:39.169Z,100.00
2023-07-25T00:38:30.648Z,100.00
2023-07-25T00:39:22.115Z,100.00
2023-07-25T00:40:14.522Z,100.00
2023-07-25T00:41:06.038Z,100.00
2023-07-25T00:41:57.599Z,100.00
2023-07-25T00:42:57.220Z,100.00
2023-07-25T00:43:48.929Z,100.00
2023-07-25T00:44:40.373Z,100.00
2023-07-25T00:45:31.967Z,100.00
2023-07-25T00:46:24.882Z,100.00
2023-07-25T00:47:19.629Z,100.00
2023-07-25T00:48:11.252Z,100.00
2023-07-25T00:49:02.967Z,100.00
2023-07-25T00:49:55.461Z,100.00
2023-07-25T00:50:47.401Z,100.00
2023-07-25T00:51:38.881Z,100.00
2023-07-25T00:52:31.561Z,100.00
2023-07-25T00:53:24.787Z,100.00
2023-07-25T00:54:16.365Z,100.00
2023-07-25T00:55:08.255Z,100.00
2023-07-25T00:56:02.304Z,100.00
2023-07-25T00:56:55.067Z,100.00
2023-07-25T00:57:46.668Z,100.00
2023-07-25T00:58:38.378Z,100.00
2023-07-25T00:59:29.891Z,100.00
2023-07-25T01:00:21.802Z,100.00
2023-07-25T01:01:14.289Z,100.00
2023-07-25T01:02:06.137Z,100.00
2023-07-25T01:02:57.714Z,100.00
2023-07-25T01:03:50.132Z,100.00
2023-07-25T01:04:43.770Z,100.00
2023-07-25T01:05:45.213Z,100.00
2023-07-25T01:06:38.279Z,100.00
2023-07-25T01:07:31.276Z,100.00
2023-07-25T01:08:22.783Z,100.00
2023-07-25T01:09:15.849Z,100.00
2023-07-25T01:10:08.259Z,100.00
2023-07-25T01:10:59.797Z,100.00
2023-07-25T01:11:52.293Z,100.00
2023-07-25T01:12:43.785Z,100.00
2023-07-25T01:13:35.386Z,100.00
2023-07-25T01:14:28.763Z,100.00
2023-07-25T01:15:20.409Z,100.00
2023-07-25T01:16:15.308Z,100.00
2023-07-25T01:17:18.335Z,100.00
2023-07-25T01:18:11.102Z,100.00
2023-07-25T01:19:03.939Z,100.00
2023-07-25T01:19:56.048Z,100.00
2023-07-25T01:20:48.707Z,100.00
2023-07-25T01:21:40.639Z,100.00
2023-07-25T01:22:36.525Z,100.00
2023-07-25T01:23:29.935Z,100.00
2023-07-25T01:24:21.614Z,100.00
2023-07-25T01:25:14.872Z,100.00
2023-07-25T01:26:06.690Z,100.00
2023-07-25T01:26:58.227Z,100.00
2023-07-25T01:27:49.868Z,100.00
2023-07-25T01:28:41.529Z,100.00
2023-07-25T01:29:32.977Z,100.00
2023-07-25T01:30:24.600Z,100.00
2023-07-25T01:31:16.158Z,100.00
2023-07-25T01:32:08.348Z,100.00
2023-07-25T01:33:00.312Z,100.00
2023-07-25T01:33:52.431Z,100.00
2023-07-25T01:34:44.092Z,100.00
2023-07-25T01:35:35.552Z,100.00
2023-07-25T01:36:27.018Z,100.00
2023-07-25T01:37:18.517Z,100.00
2023-07-25T01:38:10.060Z,100.00
2023-07-25T01:39:01.575Z,100.00
2023-07-25T01:39:53.078Z,100.00
2023-07-25T01:40:44.673Z,100.00
2023-07-25T01:41:36.273Z,100.00
2023-07-25T01:42:27.949Z,100.00
2023-07-25T01:43:19.698Z,100.00
2023-07-25T01:44:12.088Z,100.00
2023-07-25T01:45:04.061Z,100.00
2023-07-25T01:45:56.149Z,100.00
2023-07-25T01:46:47.686Z,100.00
2023-07-25T01:47:39.258Z,100.00
2023-07-25T01:48:30.912Z,100.00
2023-07-25T01:49:22.416Z,100.00
2023-07-25T01:50:14.056Z,100.00
2023-07-25T01:51:05.810Z,100.00
2023-07-25T01:51:57.257Z,100.00
2023-07-25T01:52:49.620Z,100.00
2023-07-25T01:53:41.138Z,100.00
2023-07-25T01:54:32.841Z,100.00
2023-07-25T01:55:24.303Z,100.00
2023-07-25T01:56:17.551Z,100.00
2023-07-25T01:57:09.357Z,100.00
2023-07-25T01:58:00.876Z,100.00
2023-07-25T01:58:52.537Z,100.00
2023-07-25T01:59:44.095Z,100.00
2023-07-25T02:00:35.668Z,100.00
2023-07-25T02:01:27.195Z,100.00
2023-07-25T02:02:18.714Z,100.00
2023-07-25T02:03:14.309Z,100.00
2023-07-25T02:04:05.813Z,100.00
2023-07-25T02:04:57.580Z,100.00
2023-07-25T02:05:49.060Z,100.00
2023-07-25T02:06:40.696Z,100.00
2023-07-25T02:07:32.452Z,100.00
2023-07-25T02:08:24.114Z,100.00
2023-07-25T02:09:16.030Z,100.00
2023-07-25T02:10:08.147Z,100.00
2023-07-25T02:10:59.678Z,100.00
2023-07-25T02:11:51.201Z,100.00
2023-07-25T02:12:42.766Z,100.00
2023-07-25T02:13:34.259Z,100.00
2023-07-25T02:14:25.803Z,100.00
2023-07-25T02:15:18.297Z,100.00
2023-07-25T02:16:09.783Z,100.00
2023-07-25T02:17:01.310Z,100.00
2023-07-25T02:17:53.115Z,100.00
2023-07-25T02:18:44.690Z,100.00
2023-07-25T02:19:36.914Z,100.00
2023-07-25T02:20:31.075Z,100.00
2023-07-25T02:21:22.745Z,100.00
2023-07-25T02:22:14.284Z,100.00
2023-07-25T02:23:05.831Z,100.00
2023-07-25T02:23:57.820Z,100.00
2023-07-25T02:24:49.339Z,100.00
2023-07-25T02:25:41.352Z,100.00
2023-07-25T02:26:32.937Z,100.00
2023-07-25T02:27:24.422Z,100.00
2023-07-25T02:28:16.146Z,100.00
2023-07-25T02:29:07.665Z,100.00
2023-07-25T02:30:00.526Z,100.00
2023-07-25T02:30:52.163Z,100.00
2023-07-25T02:31:44.023Z,100.00
2023-07-25T02:32:35.855Z,100.00
2023-07-25T02:33:27.556Z,100.00
2023-07-25T02:34:19.030Z,100.00
2023-07-25T02:35:10.504Z,100.00
2023-07-25T02:36:02.160Z,100.00
2023-07-25T02:36:53.594Z,100.00
2023-07-25T02:37:47.582Z,100.00
2023-07-25T02:38:39.110Z,100.00
2023-07-25T02:39:30.818Z,100.00
2023-07-25T02:40:22.300Z,100.00
2023-07-25T02:41:14.834Z,100.00
2023-07-25T02:42:06.755Z,100.00
2023-07-25T02:42:58.228Z,100.00
2023-07-25T02:43:49.773Z,100.00
2023-07-25T02:44:41.276Z,100.00
2023-07-25T02:45:32.743Z,100.00
2023-07-25T02:46:24.486Z,100.00
2023-07-25T02:47:15.997Z,100.00
2023-07-25T02:48:07.446Z,100.00
2023-07-25T02:48:58.972Z,100.00
2023-07-25T02:49:50.467Z,100.00
2023-07-25T02:50:41.998Z,100.00
2023-07-25T02:51:33.769Z,100.00
2023-07-25T02:52:25.648Z,100.00
2023-07-25T02:53:17.097Z,100.00
2023-07-25T02:54:08.561Z,100.00
2023-07-25T02:55:00.132Z,100.00
2023-07-25T02:55:51.877Z,100.00
2023-07-25T02:56:43.307Z,100.00
2023-07-25T02:57:34.806Z,100.00
2023-07-25T02:58:26.286Z,100.00
2023-07-25T02:59:19.194Z,100.00
2023-07-25T03:00:11.433Z,100.00
2023-07-25T03:01:04.147Z,100.00
2023-07-25T03:01:55.768Z,100.00
2023-07-25T03:02:48.791Z,100.00
2023-07-25T03:03:40.618Z,100.00
2023-07-25T03:04:32.147Z,100.00
2023-07-25T03:05:27.343Z,100.00
2023-07-25T03:06:19.069Z,100.00
2023-07-25T03:07:10.721Z,100.00
2023-07-25T03:08:02.612Z,100.00
2023-07-25T03:08:54.059Z,100.00
2023-07-25T03:09:45.537Z,100.00
2023-07-25T03:10:37.050Z,100.00
2023-07-25T03:11:28.535Z,100.00
2023-07-25T03:12:20.201Z,100.00
2023-07-25T03:13:11.908Z,100.00
2023-07-25T03:14:03.643Z,100.00
2023-07-25T03:14:55.068Z,100.00
2023-07-25T03:15:46.716Z,100.00
2023-07-25T03:16:38.433Z,100.00
2023-07-25T03:17:33.192Z,100.00
2023-07-25T03:18:24.846Z,100.00
2023-07-25T03:19:18.020Z,100.00
2023-07-25T03:20:09.772Z,100.00
2023-07-25T03:21:01.187Z,100.00
2023-07-25T03:21:52.807Z,100.00
2023-07-25T03:22:44.257Z,100.00
2023-07-25T03:23:36.190Z,100.00
2023-07-25T03:24:28.005Z,100.00
2023-07-25T03:25:19.613Z,100.00
2023-07-25T03:26:11.119Z,100.00
2023-07-25T03:27:02.965Z,100.00
2023-07-25T03:27:54.506Z,100.00
2023-07-25T03:28:46.223Z,100.00
2023-07-25T03:29:37.935Z,100.00
2023-07-25T03:30:30.025Z,100.00
2023-07-25T03:31:22.152Z,100.00
2023-07-25T03:32:13.756Z,100.00
2023-07-25T03:33:05.277Z,100.00
2023-07-25T03:33:56.973Z,100.00
2023-07-25T03:34:48.571Z,100.00
2023-07-25T03:35:40.133Z,100.00
2023-07-25T03:36:31.609Z,100.00
2023-07-25T03:37:23.128Z,100.00
2023-07-25T03:38:15.736Z,100.00
2023-07-25T03:39:07.171Z,100.00
2023-07-25T03:39:58.632Z,100.00
2023-07-25T03:40:50.151Z,100.00
2023-07-25T03:41:41.850Z,100.00
2023-07-25T03:42:33.330Z,100.00
2023-07-25T03:43:26.012Z,100.00
2023-07-25T03:44:21.330Z,100.00
2023-07-25T03:45:12.845Z,100.00
2023-07-25T03:46:04.698Z,100.00
2023-07-25T03:46:56.554Z,100.00
2023-07-25T03:47:48.332Z,100.00
2023-07-25T03:48:40.394Z,100.00
2023-07-25T03:49:31.918Z,100.00
2023-07-25T03:50:23.416Z,100.00
2023-07-25T03:51:15.066Z,100.00
2023-07-25T03:52:06.824Z,100.00
2023-07-25T03:52:59.704Z,100.00
2023-07-25T03:53:51.159Z,100.00
2023-07-25T03:54:42.666Z,100.00
2023-07-25T03:55:34.184Z,100.00
2023-07-25T03:56:25.752Z,100.00
2023-07-25T03:57:17.330Z,100.00
2023-07-25T03:58:08.917Z,100.00
2023-07-25T03:59:01.321Z,100.00
2023-07-25T03:59:52.761Z,100.00
2023-07-25T04:00:44.435Z,100.00
2023-07-25T04:01:36.013Z,100.00
2023-07-25T04:02:27.810Z,100.00
2023-07-25T04:03:19.496Z,100.00
2023-07-25T04:04:11.280Z,100.00
2023-07-25T04:05:03.158Z,100.00
2023-07-25T04:05:56.392Z,100.00
2023-07-25T04:06:47.860Z,100.00
2023-07-25T04:07:39.432Z,100.00
2023-07-25T04:08:30.858Z,100.00
2023-07-25T04:09:22.313Z,100.00
2023-07-25T04:10:13.864Z,100.00
2023-07-25T04:11:05.349Z,100.00
2023-07-25T04:11:56.983Z,100.00
2023-07-25T04:12:48.666Z,100.00
2023-07-25T04:13:40.915Z,100.00
2023-07-25T04:14:32.401Z,100.00
2023-07-25T04:15:23.891Z,100.00
2023-07-25T04:16:15.471Z,100.00
2023-07-25T04:17:07.536Z,100.00
2023-07-25T04:17:59.060Z,100.00
2023-07-25T04:18:50.983Z,100.00
2023-07-25T04:19:42.707Z,100.00
2023-07-25T04:20:34.428Z,100.00
2023-07-25T04:21:25.980Z,100.00
2023-07-25T04:22:17.510Z,100.00
2023-07-25T04:23:11.140Z,100.00
2023-07-25T04:24:02.790Z,100.00
2023-07-25T04:24:54.531Z,100.00
2023-07-25T04:25:46.365Z,100.00
2023-07-25T04:26:37.891Z,100.00
2023-07-25T04:27:31.981Z,100.00
2023-07-25T04:28:23.474Z,100.00
2023-07-25T04:29:14.975Z,100.00
2023-07-25T04:30:07.008Z,100.00
2023-07-25T04:30:58.526Z,100.00
2023-07-25T04:31:50.019Z,100.00
2023-07-25T04:32:41.567Z,100.00
2023-07-25T04:33:33.070Z,100.00
2023-07-25T04:34:25.905Z,100.00
2023-07-25T04:35:17.561Z,100.00
2023-07-25T04:36:09.615Z,100.00
2023-07-25T04:37:01.519Z,100.00
2023-07-25T04:37:53.068Z,100.00
2023-07-25T04:38:44.489Z,100.00
2023-07-25T04:39:37.265Z,100.00
2023-07-25T04:40:30.062Z,100.00
2023-07-25T04:41:21.666Z,100.00
2023-07-25T04:42:13.132Z,100.00
2023-07-25T04:43:04.996Z,100.00
2023-07-25T04:43:56.499Z,100.00
2023-07-25T04:44:48.017Z,100.00
2023-07-25T04:45:39.501Z,100.00
2023-07-25T04:46:31.381Z,100.00
2023-07-25T04:47:23.123Z,100.00
2023-07-25T04:48:14.667Z,100.00
2023-07-25T04:49:07.866Z,100.00
2023-07-25T04:49:59.622Z,100.00
2023-07-25T04:50:51.174Z,100.00
2023-07-25T04:51:44.718Z,100.00
2023-07-25T04:52:36.368Z,100.00
2023-07-25T04:53:27.922Z,100.00
2023-07-25T04:54:19.971Z,100.00
2023-07-25T04:55:11.668Z,100.00
2023-07-25T04:56:03.254Z,100.00
2023-07-25T04:56:54.793Z,100.00
2023-07-25T04:57:46.408Z,100.00
2023-07-25T04:58:42.160Z,100.00
2023-07-25T04:59:33.920Z,100.00
2023-07-25T05:00:25.500Z,100.00
2023-07-25T05:01:16.997Z,100.00
2023-07-25T05:02:08.463Z,100.00
2023-07-25T05:03:00.068Z,100.00
2023-07-25T05:03:51.685Z,100.00
2023-07-25T05:04:43.258Z,100.00
2023-07-25T05:05:34.727Z,100.00
2023-07-25T05:06:26.224Z,100.00
2023-07-25T05:07:18.490Z,100.00
2023-07-25T05:08:10.250Z,100.00
2023-07-25T05:09:01.709Z,100.00
2023-07-25T05:09:53.158Z,100.00
2023-07-25T05:10:44.885Z,100.00
2023-07-25T05:11:36.307Z,100.00
2023-07-25T05:12:27.773Z,100.00
2023-07-25T05:13:19.656Z,100.00
2023-07-25T05:14:11.239Z,100.00
2023-07-25T05:15:02.892Z,100.00
2023-07-25T05:15:54.458Z,100.00
2023-07-25T05:16:45.950Z,100.00
2023-07-25T05:17:37.469Z,100.00
2023-07-25T05:18:28.912Z,100.00
2023-07-25T05:19:20.429Z,100.00
2023-07-25T05:20:11.956Z,100.00
2023-07-25T05:21:03.657Z,100.00
2023-07-25T05:21:55.155Z,100.00
2023-07-25T05:22:46.793Z,100.00
2023-07-25T05:23:38.460Z,100.00
2023-07-25T05:24:29.967Z,100.00
2023-07-25T05:25:21.404Z,100.00
2023-07-25T05:26:12.947Z,100.00
2023-07-25T05:27:04.910Z,100.00
2023-07-25T05:27:56.619Z,99.59
2023-07-25T05:28:48.117Z,99.46
2023-07-25T05:29:39.772Z,99.00
2023-07-25T05:30:32.557Z,98.96
2023-07-25T05:31:24.161Z,99.48
2023-07-25T05:32:15.633Z,99.40
2023-07-25T05:33:08.686Z,99.09
2023-07-25T05:34:00.225Z,98.60
2023-07-25T05:34:51.716Z,99.28
2023-07-25T05:35:43.413Z,99.35
2023-07-25T05:36:35.394Z,97.97
2023-07-25T05:37:37.974Z,97.88
2023-07-25T05:38:29.712Z,97.65
2023-07-25T05:39:21.170Z,98.00
2023-07-25T05:40:12.936Z,97.30
2023-07-25T05:41:04.367Z,97.79
2023-07-25T05:41:55.928Z,97.50
2023-07-25T05:42:48.438Z,97.79
2023-07-25T05:43:39.896Z,97.17
2023-07-25T05:44:31.748Z,96.37
2023-07-25T05:45:23.478Z,96.04
2023-07-25T05:46:15.026Z,96.30
2023-07-25T05:47:06.835Z,94.93
2023-07-25T05:47:58.358Z,94.59
2023-07-25T05:48:50.622Z,94.75
2023-07-25T05:49:42.116Z,94.87
2023-07-25T05:50:33.808Z,94.57
2023-07-25T05:51:25.282Z,94.27
2023-07-25T05:52:18.065Z,93.89
2023-07-25T05:53:09.522Z,94.22
2023-07-25T05:54:00.988Z,94.07
2023-07-25T05:54:53.937Z,94.17
2023-07-25T05:55:46.968Z,94.38
2023-07-25T05:56:38.430Z,93.45
2023-07-25T05:57:29.901Z,93.09
2023-07-25T05:58:21.409Z,92.54
2023-07-25T05:59:13.111Z,91.80
2023-07-25T06:00:05.323Z,92.10
2023-07-25T06:00:57.828Z,92.76
2023-07-25T06:01:49.461Z,93.14
2023-07-25T06:02:40.972Z,93.00
2023-07-25T06:03:32.837Z,93.08
2023-07-25T06:04:24.366Z,91.38
2023-07-25T06:05:16.072Z,91.30
2023-07-25T06:06:07.557Z,90.65
2023-07-25T06:06:58.969Z,92.00
2023-07-25T06:07:50.622Z,91.37
2023-07-25T06:08:42.110Z,91.04
2023-07-25T06:09:33.584Z,90.42
2023-07-25T06:10:25.122Z,90.17
2023-07-25T06:11:22.096Z,90.52
2023-07-25T06:12:15.079Z,90.11
2023-07-25T06:13:08.192Z,90.38
2023-07-25T06:14:00.396Z,90.38
2023-07-25T06:14:51.998Z,90.73
2023-07-25T06:15:43.731Z,89.87
2023-07-25T06:16:35.272Z,90.30
2023-07-25T06:17:26.778Z,90.09
2023-07-25T06:18:19.770Z,89.17
2023-07-25T06:19:11.475Z,89.12
2023-07-25T06:20:03.127Z,88.91
2023-07-25T06:20:54.697Z,89.95
2023-07-25T06:21:46.607Z,89.13
2023-07-25T06:22:38.560Z,88.96
2023-07-25T06:23:30.076Z,88.17
2023-07-25T06:24:21.787Z,89.48
2023-07-25T06:25:15.778Z,88.91
2023-07-25T06:26:07.381Z,88.87
2023-07-25T06:26:59.135Z,89.14
2023-07-25T06:27:50.699Z,88.10
2023-07-25T06:28:42.124Z,89.09
2023-07-25T06:29:34.210Z,88.31
2023-07-25T06:30:25.708Z,88.86
2023-07-25T06:31:17.268Z,89.11
2023-07-25T06:32:09.071Z,88.54
2023-07-25T06:33:00.817Z,88.76
2023-07-25T06:33:52.267Z,89.37
2023-07-25T06:34:43.669Z,88.88
2023-07-25T06:35:35.227Z,87.72
2023-07-25T06:36:26.665Z,88.15
2023-07-25T06:37:18.813Z,87.49
2023-07-25T06:38:11.153Z,87.63
2023-07-25T06:39:03.801Z,87.22
2023-07-25T06:39:56.555Z,87.27
2023-07-25T06:40:48.026Z,87.42
2023-07-25T06:41:39.506Z,87.68
2023-07-25T06:42:32.738Z,86.25
2023-07-25T06:43:27.700Z,85.91
2023-07-25T06:44:20.878Z,84.99
2023-07-25T06:45:12.438Z,85.50
2023-07-25T06:46:04.174Z,85.15
2023-07-25T06:46:58.412Z,84.75
2023-07-25T06:47:56.066Z,85.74
2023-07-25T06:48:47.521Z,85.99
2023-07-25T06:49:39.203Z,85.52
2023-07-25T06:50:33.836Z,84.74
2023-07-25T06:51:25.390Z,85.12
2023-07-25T06:52:16.868Z,84.40
2023-07-25T06:53:08.379Z,83.75
2023-07-25T06:53:59.803Z,83.07
2023-07-25T06:54:51.371Z,82.51
2023-07-25T06:55:42.849Z,82.55
2023-07-25T06:56:34.265Z,82.82
2023-07-25T06:57:25.845Z,83.04
2023-07-25T06:58:17.323Z,82.24
2023-07-25T06:59:08.731Z,81.75
2023-07-25T07:00:01.445Z,82.84
2023-07-25T07:00:53.074Z,82.99
2023-07-25T07:01:44.937Z,82.45
2023-07-25T07:02:36.607Z,82.52
2023-07-25T07:03:28.250Z,83.03
2023-07-25T07:04:20.143Z,82.73
2023-07-25T07:05:27.755Z,83.27
2023-07-25T07:06:22.122Z,82.01
2023-07-25T07:07:13.666Z,82.49
2023-07-25T07:08:05.874Z,81.97
2023-07-25T07:08:57.453Z,82.52
2023-07-25T07:09:49.872Z,81.74
2023-07-25T07:10:41.589Z,80.54
2023-07-25T07:11:34.839Z,81.63
2023-07-25T07:12:27.212Z,81.38
2023-07-25T07:13:18.780Z,80.15
2023-07-25T07:14:10.622Z,81.04
2023-07-25T07:15:02.197Z,81.54
2023-07-25T07:15:53.704Z,80.06
2023-07-25T07:16:45.314Z,78.29
2023-07-25T07:17:36.888Z,79.03
2023-07-25T07:18:28.313Z,79.23
2023-07-25T07:19:19.986Z,79.34
2023-07-25T07:20:11.928Z,78.46
2023-07-25T07:21:03.443Z,77.74
2023-07-25T07:21:55.015Z,78.84
2023-07-25T07:22:46.974Z,77.51
2023-07-25T07:23:38.492Z,78.33
2023-07-25T07:24:30.134Z,77.58
2023-07-25T07:25:21.785Z,75.36
2023-07-25T07:26:13.352Z,76.59
2023-07-25T07:27:05.089Z,75.43
2023-07-25T07:27:56.734Z,75.90
2023-07-25T07:28:48.142Z,75.84
2023-07-25T07:29:39.537Z,75.82
2023-07-25T07:30:31.091Z,76.16
2023-07-25T07:31:24.701Z,74.76
2023-07-25T07:32:16.263Z,75.66
2023-07-25T07:33:07.924Z,74.76
2023-07-25T07:34:18.928Z,74.68
2023-07-25T07:35:10.617Z,73.64
2023-07-25T07:36:02.373Z,73.84
2023-07-25T07:36:53.832Z,73.59
2023-07-25T07:37:45.270Z,76.28
2023-07-25T07:38:36.735Z,75.88
2023-07-25T07:39:28.239Z,75.50
2023-07-25T07:40:19.791Z,75.27
2023-07-25T07:41:11.208Z,73.72
2023-07-25T07:42:03.071Z,74.40
2023-07-25T07:42:54.768Z,72.58
2023-07-25T07:43:46.417Z,73.78
2023-07-25T07:44:38.175Z,74.50
2023-07-25T07:45:31.478Z,73.35
2023-07-25T07:46:23.055Z,73.70
2023-07-25T07:47:14.545Z,70.72
2023-07-25T07:48:06.200Z,72.08
2023-07-25T07:48:58.857Z,73.02
2023-07-25T07:49:50.351Z,74.52
2023-07-25T07:50:45.179Z,73.56
2023-07-25T07:51:36.730Z,72.59
2023-07-25T07:52:41.679Z,72.35
2023-07-25T07:53:34.073Z,73.91
2023-07-25T07:54:25.673Z,72.34
2023-07-25T07:55:17.798Z,72.12
2023-07-25T07:56:09.381Z,71.72
2023-07-25T07:57:01.145Z,70.33
2023-07-25T07:57:53.937Z,70.26
2023-07-25T07:58:46.180Z,72.25
2023-07-25T07:59:38.735Z,71.54
2023-07-25T08:00:32.305Z,69.59
2023-07-25T08:01:24.204Z,69.11
2023-07-25T08:02:15.692Z,68.91
2023-07-25T08:03:07.291Z,69.32
2023-07-25T08:03:58.981Z,70.03
2023-07-25T08:04:50.710Z,68.94
2023-07-25T08:05:44.258Z,69.18
2023-07-25T08:06:35.746Z,69.04
2023-07-25T08:07:27.223Z,69.25
2023-07-25T08:08:18.814Z,70.47
2023-07-25T08:09:10.436Z,74.15
2023-07-25T08:10:02.147Z,74.24
2023-07-25T08:10:54.772Z,70.96
2023-07-25T08:11:46.350Z,69.29
2023-07-25T08:12:38.511Z,69.49
2023-07-25T08:13:30.466Z,68.42
2023-07-25T08:14:22.030Z,68.44
2023-07-25T08:15:13.554Z,67.92
2023-07-25T08:16:06.039Z,68.18
2023-07-25T08:16:57.883Z,68.89
2023-07-25T08:17:49.710Z,68.79
2023-07-25T08:18:41.200Z,66.69
2023-07-25T08:19:34.106Z,66.74
2023-07-25T08:20:25.832Z,67.23
2023-07-25T08:21:17.580Z,66.30
2023-07-25T08:22:11.565Z,67.53
2023-07-25T08:23:03.066Z,66.91
2023-07-25T08:23:54.690Z,67.20
2023-07-25T08:24:46.482Z,67.72
2023-07-25T08:25:41.840Z,68.06
2023-07-25T08:26:33.574Z,69.33
2023-07-25T08:27:25.063Z,67.35
2023-07-25T08:28:17.316Z,68.93
2023-07-25T08:29:09.089Z,70.95
2023-07-25T08:30:00.638Z,71.00
2023-07-25T08:31:03.162Z,68.97
2023-07-25T08:31:55.237Z,68.49
2023-07-25T08:32:46.891Z,70.49
2023-07-25T08:33:38.501Z,65.48
2023-07-25T08:34:30.030Z,65.01
2023-07-25T08:35:21.803Z,65.71
2023-07-25T08:36:13.430Z,66.15
2023-07-25T08:37:08.144Z,67.12
2023-07-25T08:37:59.726Z,69.61
2023-07-25T08:38:51.530Z,69.39
2023-07-25T08:39:43.040Z,65.66
2023-07-25T08:40:34.819Z,64.39
2023-07-25T08:41:31.553Z,65.45
2023-07-25T08:42:26.841Z,65.29
2023-07-25T08:43:22.825Z,63.66
2023-07-25T08:44:17.888Z,63.70
2023-07-25T08:45:10.142Z,64.02
2023-07-25T08:46:09.034Z,64.59
2023-07-25T08:47:07.301Z,65.99
2023-07-25T08:48:05.673Z,64.52
2023-07-25T08:49:02.546Z,64.04
2023-07-25T08:49:59.129Z,63.94
2023-07-25T08:50:53.857Z,64.11
2023-07-25T08:51:46.195Z,65.22
2023-07-25T08:52:41.892Z,63.94
2023-07-25T08:53:34.558Z,64.58
2023-07-25T08:54:31.962Z,64.22
2023-07-25T08:55:23.619Z,63.91
2023-07-25T08:56:16.150Z,62.79
2023-07-25T08:57:08.800Z,63.03
2023-07-25T08:58:01.371Z,62.10
2023-07-25T08:58:55.754Z,62.25
2023-07-25T08:59:51.146Z,62.66
2023-07-25T09:00:44.425Z,62.03
2023-07-25T09:01:36.177Z,63.40
2023-07-25T09:02:29.121Z,63.15
2023-07-25T09:03:21.279Z,63.82
2023-07-25T09:04:14.850Z,63.29
2023-07-25T09:05:07.484Z,63.63
2023-07-25T09:06:01.439Z,64.31
2023-07-25T09:06:53.775Z,64.25
2023-07-25T09:07:45.265Z,64.75
2023-07-25T09:08:36.756Z,65.01
2023-07-25T09:09:28.292Z,63.92
2023-07-25T09:10:19.842Z,62.73
2023-07-25T09:11:14.265Z,63.92
2023-07-25T09:12:08.631Z,64.80
2023-07-25T09:13:00.116Z,63.29
2023-07-25T09:13:51.637Z,62.94
2023-07-25T09:14:44.388Z,63.84
2023-07-25T09:15:35.851Z,62.78
2023-07-25T09:16:27.784Z,63.95
2023-07-25T09:17:21.386Z,64.32
2023-07-25T09:18:13.116Z,65.02
2023-07-25T09:19:04.694Z,65.72
2023-07-25T09:19:57.399Z,64.94
2023-07-25T09:20:49.766Z,65.23
2023-07-25T09:21:54.791Z,66.05
2023-07-25T09:22:49.812Z,65.41
2023-07-25T09:23:54.699Z,64.84
2023-07-25T09:24:46.186Z,64.57
2023-07-25T09:25:38.123Z,64.98
2023-07-25T09:26:31.770Z,65.68
2023-07-25T09:27:23.613Z,65.38
2023-07-25T09:28:15.376Z,65.61
2023-07-25T09:29:06.802Z,65.43
2023-07-25T09:29:58.324Z,65.83
2023-07-25T09:30:49.781Z,66.65
2023-07-25T09:31:46.565Z,66.52
2023-07-25T09:32:39.353Z,66.20
2023-07-25T09:33:31.676Z,65.23
2023-07-25T09:34:27.440Z,65.33
2023-07-25T09:35:18.931Z,65.35
2023-07-25T09:36:10.368Z,64.88
2023-07-25T09:37:05.357Z,64.79
2023-07-25T09:37:57.472Z,65.04
2023-07-25T09:38:56.142Z,64.79
2023-07-25T09:39:48.438Z,64.59
2023-07-25T09:40:41.606Z,65.45
2023-07-25T09:41:36.182Z,66.99
2023-07-25T09:42:27.702Z,66.55
2023-07-25T09:43:28.995Z,65.77
2023-07-25T09:44:20.460Z,66.03
2023-07-25T09:45:13.334Z,66.94
2023-07-25T09:46:04.845Z,65.80
2023-07-25T09:46:58.179Z,66.76
2023-07-25T09:47:53.285Z,65.47
2023-07-25T09:48:48.115Z,65.60
2023-07-25T09:49:39.784Z,66.23
2023-07-25T09:50:34.726Z,65.44
2023-07-25T09:51:26.254Z,64.59
2023-07-25T09:52:18.278Z,63.70
2023-07-25T09:53:17.628Z,65.69
2023-07-25T09:54:09.378Z,65.45
2023-07-25T09:55:00.983Z,62.46
2023-07-25T09:55:53.192Z,61.15
2023-07-25T09:56:44.943Z,60.86
2023-07-25T09:57:36.803Z,59.65
2023-07-25T09:58:29.929Z,60.12
2023-07-25T09:59:23.300Z,58.48
2023-07-25T10:00:15.154Z,60.27
2023-07-25T10:01:10.855Z,62.94
2023-07-25T10:02:02.826Z,60.14
2023-07-25T10:02:56.142Z,59.89
2023-07-25T10:03:48.415Z,57.68
2023-07-25T10:04:40.245Z,58.41
2023-07-25T10:05:31.793Z,58.21
2023-07-25T10:06:24.686Z,58.58
2023-07-25T10:07:16.652Z,58.53
2023-07-25T10:08:09.692Z,58.96
2023-07-25T10:09:02.596Z,60.37
2023-07-25T10:09:57.608Z,59.47
2023-07-25T10:10:49.341Z,61.03
2023-07-25T10:11:41.446Z,59.82
2023-07-25T10:12:33.019Z,57.66
2023-07-25T10:13:24.875Z,58.22
2023-07-25T10:14:16.405Z,59.19
2023-07-25T10:15:09.343Z,58.62
2023-07-25T10:16:04.391Z,58.37
2023-07-25T10:16:58.612Z,58.18
2023-07-25T10:17:50.469Z,58.36
2023-07-25T10:18:42.490Z,58.55
2023-07-25T10:19:49.991Z,57.91
2023-07-25T10:20:41.766Z,59.10
2023-07-25T10:21:51.485Z,59.32
2023-07-25T10:22:43.552Z,60.27
2023-07-25T10:23:36.609Z,59.57
2023-07-25T10:24:34.766Z,59.61
2023-07-25T10:25:29.807Z,60.20
2023-07-25T10:26:21.743Z,59.71
2023-07-25T10:27:13.820Z,59.48
2023-07-25T10:28:05.863Z,59.81
2023-07-25T10:29:00.699Z,59.01
2023-07-25T10:29:54.885Z,59.40
2023-07-25T10:30:47.498Z,60.10
2023-07-25T10:31:51.770Z,59.69
2023-07-25T10:32:45.751Z,60.38
2023-07-25T10:33:39.338Z,59.02
2023-07-25T10:35:15.866Z,57.88
2023-07-25T10:36:23.587Z,58.65
2023-07-25T10:37:26.043Z,58.67
2023-07-25T10:38:22.627Z,60.07
2023-07-25T10:39:25.842Z,58.89
2023-07-25T10:40:24.288Z,58.75
2023-07-25T10:41:19.736Z,59.19
2023-07-25T10:42:17.357Z,58.85
2023-07-25T10:43:08.863Z,59.26
2023-07-25T10:44:03.603Z,58.15
2023-07-25T10:44:55.534Z,58.07
2023-07-25T10:45:50.099Z,58.41
2023-07-25T10:46:41.589Z,58.55
2023-07-25T10:47:47.005Z,58.73
2023-07-25T10:48:46.156Z,58.30
2023-07-25T10:49:54.998Z,57.57
2023-07-25T10:50:46.580Z,58.06
2023-07-25T10:51:49.920Z,57.21
2023-07-25T10:52:45.981Z,56.93
2023-07-25T10:53:37.620Z,57.49
2023-07-25T10:54:30.260Z,57.74
2023-07-25T10:55:21.792Z,57.85
2023-07-25T10:56:14.576Z,57.89
2023-07-25T10:57:15.494Z,58.84
2023-07-25T10:58:10.745Z,58.16
2023-07-25T10:59:12.090Z,59.82
2023-07-25T11:00:08.536Z,59.16
2023-07-25T11:01:02.376Z,59.64
2023-07-25T11:01:53.980Z,60.55
2023-07-25T11:02:45.666Z,59.77
2023-07-25T11:03:38.446Z,59.00
2023-07-25T11:04:33.574Z,59.45
2023-07-25T11:05:25.387Z,58.14
2023-07-25T11:06:17.049Z,59.00
2023-07-25T11:07:10.994Z,57.64